Rye, NH

7:04 AM EDT on June 02, 2015 (GMT -0400)
Greenland, NH | | Change Station
CLOSE
Current Station
Personal Weather Station
Location: Greenland, NH
Elevation: 96 ft
Nearby Weather Stations

Elev 96 ft 43.03 °N, 70.83 °W | Updated 14 minutes ago

Rain
Rain
45.5 °F
Feels Like 46 °F
N
1.0
Wind Variable Wind from WSW
Gusts 6.0 mph

Today
High -- | Low -- °F
--% Chance of Precip.
Yesterday
High -- | Low -- °F
Precip. -- in
5:06 AM 8:16 PM
Full, 100% visible
Pressure 30.20 in
Visibility 4.0 miles
Clouds Overcast 600 ft
Windchill 46 °F
Dew Point 45 °F
Humidity 98%
Rainfall 1.12 in
Snow Depth Not available.
UV 0 out of 12
Pollen 1.00 out of 12
Air Quality Not available.
Flu Activity Sporadic
METAR KPSM 021058Z 03010G16KT 4SM RA BR OVC006 08/07 A3019 RMK AO2A SLP226 P0018 T00780067

More Conditions Fewer Conditions

Pressure 30.20 in
Visibility 4.0 miles
Clouds Overcast 600 ft
Windchill 46 °F
Dew Point 45 °F
Humidity 98%
Rainfall 1.12 in
Snow Depth Not available.
UV 0 out of 12
Pollen 1.00 out of 12
Air Quality Not available.
Flu Activity Sporadic
METAR KPSM 021058Z 03010G16KT 4SM RA BR OVC006 08/07 A3019 RMK AO2A SLP226 P0018 T00780067

More Conditions Fewer Conditions

10-Day Weather Forecast

Almanac

Astronomy

Jun. 02, 2015 Rise Set
Actual Time
Civil Twilight
Nautical Twilight
Astronomical Twilight
Moon
Length of Visible Light
Length of Day
Tomorrow will be .
, % of the Moon is Illuminated

Today's Extremes

State Highs State Lows

Community

WunderPhotos

Upload Photos

1,825,906 photos uploaded!

WunderBlogs® & News

Nearby

Air Quality

  Air Quality AQ Index Pollutant
Not available.

Snow Depth

Station Depth Elevation

Earthquake Activity

City Distance Mag. Time & Date
Minimum magnitude displayed is 2.5.

Coastal Water Temperatures

Place Temperature

Stations

Nearby Weather Stations

Station Location Temp. Windchill Dew Point Humidity Wind Precip. Elev Updated Type